Flight Track Log - Related Links

Times and Time Zones

All times are in EST time to prevent confusion due to time zone crossing. See the EJA831 flight status page for this flight to view local times or setup timezone preferences in your user account.

Time Position Orientation Groundspeed Altitude Reporting Facility
EST Latitude Longitude Course Direction KTS MPH feet Rate Location/Type
Tue 11:18:27 AM 30.1464 -97.5528 54° Northeast 270 311 5,600  Level Houston Center
Tue 11:19:29 AM 30.2161 -97.5083 29° Northeast 283 326 9,200 3,360 Climbing Houston Center
Tue 11:20:32 AM 30.3028 -97.4578 27° Northeast 292 336 12,600 2,880 Climbing Houston Center
Tue 11:21:34 AM 30.3881 -97.4072 27° Northeast 335 386 15,200 2,468 Climbing Houston Center
Tue 11:22:00 AM 30.6109 -97.5480 45° Northeast  Level Estimated
Tue 11:22:36 AM 30.4744 -97.3556 27° Northeast 347 399 17,700  Level Houston Center
Tue 11:23:00 AM 30.6609 -97.4669 54° Northeast  Level FlightAware Approximate
Tue 11:23:38 AM 30.5628 -97.3025 27° Northeast 353 406 20,000  Level Houston Center
Tue 11:24:40 AM 30.6444 -97.2125 43° Northeast 409 471 20,000  Level Houston Center
Tue 11:25:42 AM 30.7375 -97.1025 45° Northeast 410 472 20,000  Level Houston Center
Tue 11:26:44 AM 30.8169 -97.0075 46° Northeast 411 473 20,000  Level Houston Center
Tue 11:27:47 AM 30.8961 -96.9108 46° Northeast 412 474 20,000  Level Houston Center
Tue 11:28:49 AM 30.9767 -96.8153 45° Northeast 412 474 20,000  Level Houston Center
Tue 11:29:51 AM 31.0569 -96.7169 46° Northeast 416 479 20,000  Level Houston Center
Tue 11:30:53 AM 31.1381 -96.6186 46° Northeast 418 481 20,000  Level Houston Center
Tue 11:31:55 AM 31.2331 -96.5042 46° Northeast 417 480 20,000  Level Houston Center
Tue 11:32:57 AM 31.3275 -96.4381 31° Northeast 403 464 20,000  Level Houston Center
Tue 11:33:59 AM 31.4336 -96.4308 North 381 438 20,000  Level Houston Center
Tue 11:35:02 AM 31.5397 -96.4258 North 378 435 20,000  Level Houston Center
Tue 11:36:04 AM 31.6475 -96.4189 North 383 441 20,000  Level Houston Center
Tue 11:37:06 AM 31.7550 -96.4119 North 383 441 20,000 -871 Level Houston Center
Tue 11:38:08 AM 31.8806 -96.4047 North 384 442 18,200 -1,984 Descending Houston Center
Tue 11:39:10 AM 31.9811 -96.3989 North 356 410 15,900 -1,935 Descending Houston Center
Tue 11:40:12 AM 32.0778 -96.3936 North 352 405 14,200 -1,500 Descending Houston Center
Tue 11:41:22 AM 32.1800 -96.3850 North 347 399 12,600 -1,591 Descending Fort Worth Center
Tue 11:42:24 AM 32.2933 -96.3786 North 341 392 10,700 -1,645 Descending Fort Worth Center
Tue 11:43:26 AM 32.3769 -96.3728 North 310 357 9,200 -823 Descending Fort Worth Center
Tue 11:44:28 AM 32.4544 -96.3783 357° North 285 328 9,000 -484 Descending Fort Worth Center
Tue 11:45:30 AM 32.5222 -96.4186 333° Northwest 273 314 8,200 -871 Descending Fort Worth Center
Tue 11:46:32 AM 32.5872 -96.4578 333° Northwest 266 306 7,200 -960 Descending Fort Worth Center
Tue 11:47:35 AM 32.6517 -96.4969 333° Northwest 261 300 6,200 -576 Descending Fort Worth Center
Tue 11:48:37 AM 32.7281 -96.5478 331° Northwest 263 303 6,000 -484 Descending Fort Worth Center
Tue 11:49:39 AM 32.7897 -96.5939 328° Northwest 265 305 5,200 -919 Descending Fort Worth Center
Tue 11:50:41 AM 32.8503 -96.6283 334° Northwest 251 289 4,100 -1,091 Descending Fort Worth Center
Tue 11:51:18 AM 32.9000 -96.6500 340° North 215 247 3,400 -647 Descending Dallas / Fort Worth TRACON
Tue 11:52:23 AM 32.9500 -96.6833 331° Northwest 209 241 3,000 -200 Descending Dallas / Fort Worth TRACON
Tue 11:53:18 AM 32.9833 -96.7167 320° Northwest 213 245 3,000  Level Dallas / Fort Worth TRACON
Tue 11:54:18 AM 33.0333 -96.7667 320° Northwest 205 236 3,000  Level Dallas / Fort Worth TRACON
Tue 11:55:18 AM 33.0667 -96.8167 309° West 173 199 3,000 -100 Level Dallas / Fort Worth TRACON
Tue 11:56:18 AM 33.0500 -96.8500 239° Southwest 154 177 2,800 -750 Descending Dallas / Fort Worth TRACON
Tue 11:57:18 AM 33.0167 -96.8500 180° South 173 199 1,500 -750 Descending Dallas / Fort Worth TRACON
Tue 11:58:58 AM 32.9528 -96.8333 168° South 153 176 800 -420 Descending Fort Worth Center

Login

Don't have an account? Register now (free) for customized features, flight alerts, and more!